aviador You're here:

WIII Decoded Metar

JAKARTA in INDONESIA
Report Time2017-08-24 08:30:00
UTC Time2017-08-24 08:53:05
Flight Rules vfr VFR
Wind050° at 14 Gusting to 24 kt
W.Decomp.*RWY 07: 13.2 kt HW 4.8 kt LCW
W.Rank050° ranks 3
Current wind is above 050° avg. (7.4)
Visibility9999 m
Phenomena:N/A
Clouds:Few 020 Hf
Expected CloudBase > 5,200 ft AGL from Temp-Dew spread
CeilingNone
Temp32°C (ISA +17)
Dew Point19°C (46% RH)
Heat Index33.5°C
AAT30.2°C
QNH1007 hPa
Density Alt2,464 ft
Elevation26 ft
Report Wrong Elevation
Raw Report
METAR WIII 240830Z 05014G24KT 9999 FEW020 32/19 Q1007 NOSIG=

Extra information for WIII:More info

Metar Taf Metar & Taf Last 4 Metars F.Rules Stats Wind Profile Meteogram Temp Stats Airport Information Weather charts Add Link Nearby VenuesMetar ALERT Operation Metar Decoded Social comments